Aspen Park, Colorado
Current Conditions -  °F | °C
As of 3:53 PM on Thursday 18 Dec 2014 (Local Time) from KAPA Reporting Station
Few Clouds Few Clouds  
Wind Chill: 34°   Ceiling: Unl
Heat Index: 40°   Visibility: 10mi
Dew Point: 27°   Wind: 9mph
Humidity: 60%   Direction: 350°N
Pressure: 30"   Gusts: NA
Location:  39.4975°N, 105.289°W
Report Text: KAPA 182253Z 35008KT 10SM FEW120 FEW200 04/M03 A3000 RMK AO2 SLP179 VIS LWR NW T00441028
Loading
Personal Weather Stations






























Interactive Weather Map New forecast layout! Learn more

10-Day Weather Forecast

Advertisements
Track Severe Weather on mobile